createdAt,value
2022-07-30T00:02:26.632Z,6.32
2022-07-30T00:04:56.930Z,6.28
2022-07-30T00:07:29.768Z,5.57
2022-07-30T00:09:59.899Z,5.45
2022-07-30T00:12:30.225Z,5.80
2022-07-30T00:15:00.364Z,5.63
2022-07-30T00:17:30.670Z,5.97
2022-07-30T00:20:02.850Z,5.40
2022-07-30T00:22:36.291Z,5.57
2022-07-30T00:25:07.011Z,6.25
2022-07-30T00:27:55.649Z,6.03
2022-07-30T00:30:26.394Z,6.07
2022-07-30T00:32:56.759Z,6.22
2022-07-30T00:35:27.523Z,6.32
2022-07-30T00:38:00.708Z,6.40
2022-07-30T00:40:31.238Z,6.80
2022-07-30T00:43:01.555Z,6.78
2022-07-30T00:45:31.883Z,7.13
2022-07-30T00:48:20.918Z,6.60
2022-07-30T00:50:51.207Z,6.07
2022-07-30T00:53:24.319Z,6.97
2022-07-30T00:55:54.684Z,6.25
2022-07-30T00:58:25.058Z,6.43
2022-07-30T01:00:55.690Z,5.93
2022-07-30T01:03:26.004Z,6.10
2022-07-30T01:05:56.179Z,5.72
2022-07-30T01:08:29.043Z,6.18
2022-07-30T01:10:59.232Z,6.50
2022-07-30T01:13:29.484Z,5.75
2022-07-30T01:15:59.795Z,6.28
2022-07-30T01:18:45.911Z,6.43
2022-07-30T01:21:23.992Z,6.43
2022-07-30T01:24:02.937Z,7.32
2022-07-30T01:26:37.451Z,6.50
2022-07-30T01:29:08.646Z,6.03
2022-07-30T01:31:40.448Z,6.97
2022-07-30T01:34:14.972Z,6.93
2022-07-30T01:36:48.971Z,7.50
2022-07-30T01:39:23.202Z,7.10
2022-07-30T01:41:57.640Z,7.68
2022-07-30T01:44:30.793Z,8.45
2022-07-30T01:47:01.713Z,8.07
2022-07-30T01:49:34.910Z,7.55
2022-07-30T01:52:14.722Z,7.20
2022-07-30T01:54:49.543Z,7.70
2022-07-30T01:57:24.780Z,7.63
2022-07-30T02:00:07.771Z,7.40
2022-07-30T02:02:40.790Z,7.72
2022-07-30T02:05:12.378Z,8.10
2022-07-30T02:07:51.968Z,7.78
2022-07-30T02:10:31.659Z,7.97
2022-07-30T02:13:09.637Z,7.30
2022-07-30T02:15:48.865Z,8.27
2022-07-30T02:18:25.983Z,8.50
2022-07-30T02:21:07.557Z,8.25
2022-07-30T02:23:47.003Z,7.95
2022-07-30T02:26:21.478Z,7.88
2022-07-30T02:29:02.250Z,7.72
2022-07-30T02:31:35.618Z,7.65
2022-07-30T02:34:09.767Z,7.38
2022-07-30T02:36:42.151Z,7.50
2022-07-30T02:39:14.392Z,7.80
2022-07-30T02:41:49.809Z,8.15
2022-07-30T02:44:25.447Z,7.47
2022-07-30T02:46:57.409Z,7.38
2022-07-30T02:49:29.332Z,7.28
2022-07-30T02:52:12.405Z,7.18
2022-07-30T02:54:46.448Z,7.88
2022-07-30T02:57:20.523Z,7.13
2022-07-30T02:59:57.178Z,7.20
2022-07-30T03:02:31.642Z,7.28
2022-07-30T03:05:05.703Z,7.10
2022-07-30T03:07:39.459Z,7.55
2022-07-30T03:10:11.695Z,7.43
2022-07-30T03:12:44.458Z,7.15
2022-07-30T03:15:19.107Z,6.97
2022-07-30T03:17:55.745Z,7.63
2022-07-30T03:20:32.450Z,7.65
2022-07-30T03:23:07.164Z,7.28
2022-07-30T03:25:38.509Z,7.05
2022-07-30T03:28:11.602Z,7.13
2022-07-30T03:30:46.428Z,7.00
2022-07-30T03:33:18.647Z,6.57
2022-07-30T03:35:50.384Z,7.00
2022-07-30T03:38:23.507Z,7.10
2022-07-30T03:40:55.314Z,7.28
2022-07-30T03:43:33.635Z,7.53
2022-07-30T03:46:08.517Z,7.32
2022-07-30T03:48:39.735Z,7.57
2022-07-30T03:51:13.071Z,8.00
2022-07-30T03:53:45.438Z,7.80
2022-07-30T03:56:17.657Z,7.13
2022-07-30T03:58:48.021Z,6.97
2022-07-30T04:01:20.916Z,7.10
2022-07-30T04:03:51.281Z,7.15
2022-07-30T04:06:21.432Z,7.38
2022-07-30T04:08:51.692Z,6.72
2022-07-30T04:11:21.794Z,7.43
2022-07-30T04:14:12.217Z,7.28
2022-07-30T04:16:53.386Z,8.10
2022-07-30T04:19:29.367Z,7.53
2022-07-30T04:22:03.088Z,7.45
2022-07-30T04:24:34.999Z,8.20
2022-07-30T04:27:06.459Z,7.35
2022-07-30T04:29:37.471Z,7.55
2022-07-30T04:32:12.253Z,7.82
2022-07-30T04:34:50.543Z,7.70
2022-07-30T04:37:23.869Z,7.68
2022-07-30T04:39:54.302Z,7.57
2022-07-30T04:42:24.705Z,7.50
2022-07-30T04:44:55.683Z,7.78
2022-07-30T04:47:28.943Z,7.85
2022-07-30T04:50:00.809Z,7.18
2022-07-30T04:52:31.427Z,7.63
2022-07-30T04:55:07.001Z,7.72
2022-07-30T04:57:40.380Z,7.93
2022-07-30T05:00:12.865Z,7.72
2022-07-30T05:02:47.490Z,7.95
2022-07-30T05:05:20.298Z,7.72
2022-07-30T05:07:50.869Z,7.68
2022-07-30T05:10:21.711Z,7.43
2022-07-30T05:12:51.882Z,7.15
2022-07-30T05:15:22.431Z,6.85
2022-07-30T05:18:10.745Z,7.20
2022-07-30T05:20:41.850Z,7.25
2022-07-30T05:23:12.336Z,7.20
2022-07-30T05:25:43.908Z,7.43
2022-07-30T05:28:14.038Z,6.93
2022-07-30T05:30:44.574Z,7.22
2022-07-30T05:33:17.726Z,7.75
2022-07-30T05:35:47.999Z,6.93
2022-07-30T05:38:18.307Z,7.30
2022-07-30T05:40:48.593Z,7.03
2022-07-30T05:43:18.834Z,6.55
2022-07-30T05:48:46.072Z,6.38
2022-07-30T05:51:17.027Z,6.88
2022-07-30T05:53:47.174Z,6.28
2022-07-30T05:56:17.651Z,6.20
2022-07-30T05:58:47.800Z,6.40
2022-07-30T06:01:18.025Z,5.55
2022-07-30T06:03:50.785Z,6.25
2022-07-30T06:06:23.155Z,6.85
2022-07-30T06:08:53.734Z,5.75
2022-07-30T06:11:24.170Z,7.28
2022-07-30T06:13:54.287Z,6.18
2022-07-30T06:16:24.613Z,7.55
2022-07-30T06:18:57.496Z,7.55
2022-07-30T06:21:27.727Z,8.60
2022-07-30T06:23:58.046Z,7.13
2022-07-30T06:26:28.355Z,8.30
2022-07-30T06:28:58.540Z,9.13
2022-07-30T06:31:29.063Z,8.90
2022-07-30T06:34:01.874Z,7.70
2022-07-30T06:36:32.202Z,8.20
2022-07-30T06:39:02.470Z,9.73
2022-07-30T06:41:32.711Z,9.10
2022-07-30T06:44:02.826Z,9.48
2022-07-30T06:46:33.194Z,9.73
2022-07-30T06:49:06.744Z,8.10
2022-07-30T06:51:37.092Z,8.45
2022-07-30T06:54:07.467Z,9.02
2022-07-30T06:56:37.805Z,9.88
2022-07-30T06:59:07.958Z,8.93
2022-07-30T07:01:38.222Z,7.95
2022-07-30T07:04:11.260Z,9.98
2022-07-30T07:06:41.639Z,8.90
2022-07-30T07:09:11.762Z,9.45
2022-07-30T07:11:42.000Z,9.57
2022-07-30T07:14:12.173Z,10.13
2022-07-30T07:16:42.629Z,8.35
2022-07-30T07:20:00.792Z,10.45
2022-07-30T07:22:06.501Z,9.25
2022-07-30T07:24:36.662Z,7.72
2022-07-30T07:27:07.382Z,9.05
2022-07-30T07:30:05.082Z,8.45
2022-07-30T07:32:35.951Z,8.38
2022-07-30T07:35:10.147Z,8.43
2022-07-30T07:37:42.734Z,9.80
2022-07-30T07:40:14.424Z,9.05
2022-07-30T07:42:44.892Z,9.68
2022-07-30T07:45:15.215Z,10.60
2022-07-30T07:47:53.144Z,8.75
2022-07-30T07:50:26.345Z,10.88
2022-07-30T07:53:15.626Z,9.35
2022-07-30T07:55:45.825Z,9.63
2022-07-30T07:58:25.391Z,10.48
2022-07-30T08:00:59.268Z,10.30
2022-07-30T08:03:29.502Z,9.00
2022-07-30T08:06:06.319Z,10.50
2022-07-30T08:08:38.449Z,10.30
2022-07-30T08:11:09.350Z,11.18
2022-07-30T08:13:51.720Z,11.32
2022-07-30T08:16:23.205Z,11.73
2022-07-30T08:18:53.652Z,10.05
2022-07-30T08:21:26.545Z,8.52
2022-07-30T08:23:56.752Z,10.05
2022-07-30T08:26:27.183Z,10.07
2022-07-30T08:28:59.523Z,9.55
2022-07-30T08:31:29.759Z,8.88
2022-07-30T08:33:59.863Z,9.45
2022-07-30T08:36:32.698Z,10.35
2022-07-30T08:39:02.820Z,9.35
2022-07-30T08:41:34.247Z,9.38
2022-07-30T08:44:10.133Z,9.00
2022-07-30T08:46:47.204Z,9.60
2022-07-30T08:49:18.853Z,9.73
2022-07-30T08:51:52.725Z,9.70
2022-07-30T08:54:23.412Z,9.52
2022-07-30T08:56:57.597Z,10.13
2022-07-30T08:59:59.882Z,8.95
2022-07-30T09:14:14.481Z,9.15
2022-07-30T09:16:48.669Z,8.15
2022-07-30T09:19:24.993Z,8.45
2022-07-30T09:22:01.631Z,8.45
2022-07-30T09:24:45.589Z,9.07
2022-07-30T09:27:19.771Z,7.88
2022-07-30T09:30:01.635Z,34.13
2022-07-30T09:32:57.950Z,8.05
2022-07-30T09:35:41.280Z,7.30
2022-07-30T09:38:16.255Z,7.28
2022-07-30T09:40:57.315Z,7.57
2022-07-30T09:43:35.502Z,7.10
2022-07-30T09:46:09.227Z,7.13
2022-07-30T09:48:39.580Z,7.45
2022-07-30T09:51:15.912Z,6.53
2022-07-30T09:54:01.631Z,6.43
2022-07-30T09:56:53.821Z,6.43
2022-07-30T09:59:35.484Z,6.30
2022-07-30T10:02:10.209Z,5.38
2022-07-30T10:04:41.126Z,5.88
2022-07-30T10:07:25.574Z,8.15
2022-07-30T10:09:56.803Z,8.35
2022-07-30T10:12:30.062Z,7.32
2022-07-30T10:15:06.106Z,6.88
2022-07-30T10:17:38.791Z,5.38
2022-07-30T10:20:12.442Z,5.55
2022-07-30T10:22:43.368Z,6.55
2022-07-30T10:25:23.000Z,6.63
2022-07-30T10:27:58.306Z,5.90
2022-07-30T10:30:33.702Z,6.13
2022-07-30T10:33:05.004Z,5.20
2022-07-30T10:35:38.079Z,5.53
2022-07-30T10:38:14.552Z,6.43
2022-07-30T10:40:53.200Z,4.55
2022-07-30T10:43:58.806Z,5.78
2022-07-30T10:46:52.633Z,5.22
2022-07-30T10:49:23.230Z,3.95
2022-07-30T10:51:57.605Z,3.83
2022-07-30T10:54:47.533Z,3.45
2022-07-30T10:57:31.856Z,3.58
2022-07-30T11:00:17.780Z,2.63
2022-07-30T11:03:23.678Z,3.65
2022-07-30T11:06:30.929Z,3.60
2022-07-30T11:12:01.071Z,3.85
2022-07-30T11:15:06.170Z,4.45
2022-07-30T11:18:04.293Z,4.90
2022-07-30T11:20:36.673Z,3.70
2022-07-30T11:23:35.503Z,3.97
2022-07-30T11:26:14.148Z,4.97
2022-07-30T11:28:49.756Z,5.22
2022-07-30T11:31:55.651Z,3.80
2022-07-30T11:34:31.894Z,5.35
2022-07-30T11:37:19.286Z,4.65
2022-07-30T11:40:15.448Z,4.75
2022-07-30T11:43:21.827Z,4.78
2022-07-30T11:46:10.954Z,4.10
2022-07-30T11:48:45.889Z,4.75
2022-07-30T11:51:16.095Z,4.00
2022-07-30T11:53:47.777Z,5.53
2022-07-30T11:56:18.202Z,4.80
2022-07-30T11:58:51.063Z,4.28
2022-07-30T12:01:22.150Z,4.90
2022-07-30T12:03:52.611Z,4.60
2022-07-30T12:06:23.617Z,3.83
2022-07-30T12:08:58.721Z,4.03
2022-07-30T12:11:35.629Z,4.57
2022-07-30T12:14:08.855Z,3.78
2022-07-30T12:16:41.098Z,4.45
2022-07-30T12:19:11.405Z,4.50
2022-07-30T12:21:41.671Z,4.72
2022-07-30T12:24:12.011Z,5.25
2022-07-30T12:26:42.376Z,5.70
2022-07-30T12:29:15.983Z,4.85
2022-07-30T12:31:46.627Z,5.38
2022-07-30T12:34:24.521Z,5.05
2022-07-30T12:36:55.027Z,5.50
2022-07-30T12:39:28.662Z,5.20
2022-07-30T12:41:59.249Z,4.50
2022-07-30T12:44:44.971Z,4.28
2022-07-30T12:47:25.876Z,4.38
2022-07-30T12:49:58.106Z,5.03
2022-07-30T12:52:34.526Z,3.90
2022-07-30T12:55:10.189Z,4.80
2022-07-30T12:57:57.131Z,4.05
2022-07-30T13:00:32.835Z,4.50
2022-07-30T13:03:03.204Z,4.93
2022-07-30T13:05:51.294Z,5.03
2022-07-30T13:08:56.622Z,3.85
2022-07-30T13:11:49.010Z,4.47
2022-07-30T13:14:19.656Z,4.38
2022-07-30T13:16:58.869Z,4.43
2022-07-30T13:19:29.902Z,4.03
2022-07-30T13:22:00.137Z,4.63
2022-07-30T13:24:34.136Z,5.03
2022-07-30T13:27:04.655Z,4.32
2022-07-30T13:29:35.136Z,3.83
2022-07-30T13:32:05.373Z,3.25
2022-07-30T13:34:35.485Z,3.72
2022-07-30T13:37:05.763Z,3.25
2022-07-30T13:39:38.954Z,4.00
2022-07-30T13:42:09.670Z,3.80
2022-07-30T13:44:40.417Z,3.35
2022-07-30T13:47:10.783Z,3.80
2022-07-30T13:49:44.110Z,4.55
2022-07-30T13:52:14.382Z,3.90
2022-07-30T13:54:47.109Z,3.95
2022-07-30T13:57:17.327Z,4.93
2022-07-30T13:59:47.576Z,3.90
2022-07-30T14:02:17.883Z,3.00
2022-07-30T14:04:53.019Z,3.13
2022-07-30T14:07:29.368Z,3.13
2022-07-30T14:10:02.414Z,3.33
2022-07-30T14:12:32.821Z,3.47
2022-07-30T14:15:03.069Z,3.40
2022-07-30T14:17:33.654Z,2.70
2022-07-30T14:20:03.839Z,3.20
2022-07-30T14:22:34.168Z,2.83
2022-07-30T14:25:07.801Z,2.90
2022-07-30T14:27:38.339Z,3.58
2022-07-30T14:30:12.262Z,2.90
2022-07-30T14:32:43.457Z,2.70
2022-07-30T14:35:14.277Z,3.00
2022-07-30T14:37:44.554Z,3.20
2022-07-30T14:40:17.546Z,3.05
2022-07-30T14:42:50.417Z,4.18
2022-07-30T14:45:20.711Z,3.42
2022-07-30T14:47:50.974Z,3.40
2022-07-30T14:50:21.135Z,3.00
2022-07-30T14:52:52.153Z,4.05
2022-07-30T14:55:25.183Z,3.17
2022-07-30T14:57:55.540Z,3.10
2022-07-30T15:00:25.950Z,3.05
2022-07-30T15:02:56.176Z,2.90
2022-07-30T15:05:26.574Z,3.00
2022-07-30T15:07:56.767Z,2.53
2022-07-30T15:10:29.777Z,2.20
2022-07-30T15:13:00.070Z,1.80
2022-07-30T15:15:31.515Z,1.80
2022-07-30T15:18:08.015Z,2.30
2022-07-30T15:20:38.312Z,2.05
2022-07-30T15:23:13.145Z,1.60
2022-07-30T15:25:47.231Z,1.77
2022-07-30T15:28:17.843Z,2.30
2022-07-30T15:30:50.086Z,1.27
2022-07-30T15:33:20.836Z,1.40
2022-07-30T15:35:51.094Z,1.40
2022-07-30T15:38:21.439Z,1.35
2022-07-30T15:40:54.307Z,1.42
2022-07-30T15:43:24.571Z,1.40
2022-07-30T15:45:55.795Z,1.50
2022-07-30T15:48:27.671Z,1.20
2022-07-30T15:51:06.066Z,1.48
2022-07-30T15:53:36.530Z,1.30
2022-07-30T15:56:10.732Z,1.33
2022-07-30T15:58:43.527Z,1.50
2022-07-30T16:01:14.172Z,1.67
2022-07-30T16:03:44.544Z,1.65
2022-07-30T16:06:14.827Z,1.40
2022-07-30T16:08:45.082Z,1.55
2022-07-30T16:11:18.171Z,1.83
2022-07-30T16:13:49.742Z,1.45
2022-07-30T16:16:19.905Z,1.75
2022-07-30T16:18:50.278Z,1.80
2022-07-30T16:21:22.055Z,1.95
2022-07-30T16:23:52.628Z,1.70
2022-07-30T16:26:25.736Z,1.42
2022-07-30T16:28:56.391Z,1.60
2022-07-30T16:31:26.855Z,1.70
2022-07-30T16:33:57.285Z,1.58
2022-07-30T16:36:27.565Z,1.52
2022-07-30T16:38:57.912Z,1.40
2022-07-30T16:41:30.834Z,1.63
2022-07-30T16:44:01.113Z,1.60
2022-07-30T16:46:31.416Z,1.73
2022-07-30T16:49:01.845Z,2.20
2022-07-30T16:51:32.133Z,2.13
2022-07-30T16:54:02.503Z,1.60
2022-07-30T16:56:35.364Z,1.80
2022-07-30T16:59:05.626Z,1.70
2022-07-30T17:01:35.944Z,1.75
2022-07-30T17:04:06.478Z,2.00
2022-07-30T17:06:36.800Z,2.03
2022-07-30T17:09:07.317Z,1.77
2022-07-30T17:11:47.057Z,1.77
2022-07-30T17:14:23.073Z,2.10
2022-07-30T17:16:53.640Z,1.70
2022-07-30T17:19:23.966Z,1.92
2022-07-30T17:21:54.237Z,1.70
2022-07-30T17:24:24.638Z,2.10
2022-07-30T17:26:57.550Z,1.65
2022-07-30T17:29:27.819Z,2.30
2022-07-30T17:31:57.990Z,2.10
2022-07-30T17:34:28.228Z,1.65
2022-07-30T17:37:07.784Z,1.70
2022-07-30T17:40:27.224Z,1.85
2022-07-30T17:42:37.771Z,1.80
2022-07-30T17:45:10.052Z,2.15
2022-07-30T17:47:49.350Z,1.83
2022-07-30T17:53:28.342Z,2.15
2022-07-30T17:59:42.765Z,1.75
2022-07-30T18:02:13.252Z,2.10
2022-07-30T18:04:43.500Z,2.00
2022-07-30T18:07:13.916Z,1.92
2022-07-30T18:09:44.632Z,2.00
2022-07-30T18:12:14.929Z,1.85
2022-07-30T18:14:47.749Z,2.13
2022-07-30T18:17:18.017Z,2.00
2022-07-30T18:19:48.168Z,2.20
2022-07-30T18:22:22.270Z,2.05
2022-07-30T18:25:00.605Z,2.40
2022-07-30T18:27:31.085Z,1.80
2022-07-30T18:30:04.005Z,2.10
2022-07-30T18:32:34.373Z,2.13
2022-07-30T18:35:04.888Z,2.10
2022-07-30T18:37:41.842Z,2.40
2022-07-30T18:40:14.533Z,2.20
2022-07-30T18:42:45.968Z,2.05
2022-07-30T18:45:19.660Z,2.00
2022-07-30T18:47:50.372Z,2.15
2022-07-30T18:50:21.411Z,2.30
2022-07-30T18:52:52.202Z,2.25
2022-07-30T18:55:22.512Z,1.90
2022-07-30T18:57:52.816Z,2.33
2022-07-30T19:00:34.918Z,2.30
2022-07-30T19:03:06.576Z,2.00
2022-07-30T19:05:38.472Z,1.70
2022-07-30T19:08:09.808Z,1.90
2022-07-30T19:10:40.123Z,2.40
2022-07-30T19:13:10.444Z,1.83
2022-07-30T19:15:43.320Z,1.90
2022-07-30T19:18:13.613Z,2.10
2022-07-30T19:20:44.173Z,2.22
2022-07-30T19:23:16.548Z,2.08
2022-07-30T19:25:46.784Z,1.92
2022-07-30T19:28:18.033Z,2.05
2022-07-30T19:30:50.910Z,2.22
2022-07-30T19:33:21.232Z,2.10
2022-07-30T19:35:51.442Z,2.00
2022-07-30T19:38:23.885Z,2.45
2022-07-30T19:40:54.810Z,2.00
2022-07-30T19:43:25.741Z,2.20
2022-07-30T19:46:01.435Z,2.60
2022-07-30T19:48:32.499Z,2.10
2022-07-30T19:51:03.286Z,2.35
2022-07-30T19:53:35.848Z,1.98
2022-07-30T19:56:10.505Z,2.33
2022-07-30T19:58:41.975Z,2.10
2022-07-30T20:01:16.105Z,2.00
2022-07-30T20:03:47.098Z,2.22
2022-07-30T20:06:19.233Z,2.00
2022-07-30T20:08:51.599Z,2.30
2022-07-30T20:11:35.926Z,2.10
2022-07-30T20:14:07.070Z,2.13
2022-07-30T20:16:40.011Z,2.30
2022-07-30T20:19:10.796Z,2.30
2022-07-30T20:21:56.324Z,2.25
2022-07-30T20:24:28.030Z,2.65
2022-07-30T20:26:58.479Z,2.78
2022-07-30T20:29:28.762Z,2.58
2022-07-30T20:32:02.564Z,2.90
2022-07-30T20:34:33.076Z,2.20
2022-07-30T20:37:13.815Z,2.30
2022-07-30T20:39:52.056Z,2.90
2022-07-30T20:42:25.171Z,2.60
2022-07-30T20:44:57.160Z,2.58
2022-07-30T20:47:38.132Z,2.72
2022-07-30T20:50:14.189Z,2.97
2022-07-30T20:52:47.004Z,2.85
2022-07-30T20:55:22.033Z,2.47
2022-07-30T20:58:00.221Z,3.30
2022-07-30T21:00:40.994Z,3.00
2022-07-30T21:03:14.177Z,3.10
2022-07-30T21:05:46.734Z,2.95
2022-07-30T21:08:17.439Z,2.90
2022-07-30T21:10:48.304Z,2.67
2022-07-30T21:13:19.435Z,2.90
2022-07-30T21:16:02.628Z,3.08
2022-07-30T21:18:37.271Z,2.40
2022-07-30T21:21:08.091Z,2.55
2022-07-30T21:23:41.642Z,2.80
2022-07-30T21:26:13.982Z,2.78
2022-07-30T21:28:44.268Z,2.75
2022-07-30T21:31:14.793Z,2.67
2022-07-30T21:33:47.704Z,2.50
2022-07-30T21:36:18.871Z,2.53
2022-07-30T21:38:55.227Z,2.35
2022-07-30T21:41:40.387Z,2.42
2022-07-30T21:44:11.580Z,2.47
2022-07-30T21:46:41.953Z,2.58
2022-07-30T21:49:16.347Z,2.60
2022-07-30T21:51:46.825Z,2.78
2022-07-30T21:54:28.680Z,2.80
2022-07-30T21:56:59.706Z,2.83
2022-07-30T21:59:29.967Z,3.15
2022-07-30T22:02:00.517Z,3.65
2022-07-30T22:04:33.567Z,2.88
2022-07-30T22:07:03.807Z,3.33
2022-07-30T22:09:34.653Z,2.63
2022-07-30T22:12:09.284Z,2.50
2022-07-30T22:14:43.195Z,2.35
2022-07-30T22:17:22.679Z,2.58
2022-07-30T22:19:56.829Z,2.40
2022-07-30T22:22:30.115Z,2.72
2022-07-30T22:27:57.575Z,2.83
2022-07-30T22:30:30.563Z,2.90
2022-07-30T22:33:15.045Z,2.55
2022-07-30T22:35:50.264Z,3.10
2022-07-30T22:38:21.118Z,3.00
2022-07-30T22:40:52.540Z,2.75
2022-07-30T22:43:23.786Z,2.85
2022-07-30T22:46:03.623Z,2.95
2022-07-30T22:48:45.167Z,2.53
2022-07-30T22:51:18.256Z,3.10
2022-07-30T22:54:11.260Z,3.08
2022-07-30T22:56:39.933Z,3.03
2022-07-30T22:59:10.359Z,2.72
2022-07-30T23:01:43.474Z,3.20
2022-07-30T23:04:14.039Z,2.70
2022-07-30T23:06:48.153Z,2.90
2022-07-30T23:09:18.452Z,2.65
2022-07-30T23:11:49.931Z,2.80
2022-07-30T23:12:32.684Z,2.45
2022-07-30T23:14:21.081Z,2.85
2022-07-30T23:16:51.272Z,2.90
2022-07-30T23:19:22.201Z,3.00
2022-07-30T23:21:55.209Z,3.03
2022-07-30T23:24:25.406Z,3.00
2022-07-30T23:26:56.028Z,3.35
2022-07-30T23:29:26.360Z,3.40
2022-07-30T23:31:56.693Z,3.47
2022-07-30T23:34:27.109Z,3.45
2022-07-30T23:37:00.298Z,2.90
2022-07-30T23:39:30.823Z,2.92
2022-07-30T23:42:01.072Z,2.95
2022-07-30T23:44:34.309Z,3.10
2022-07-30T23:47:07.378Z,3.08
2022-07-30T23:49:37.816Z,3.00
2022-07-30T23:52:11.469Z,3.22
2022-07-30T23:54:41.813Z,3.03
2022-07-30T23:57:12.030Z,3.00
2022-07-30T23:59:42.382Z,2.92
